createdAt,value
2022-08-05T00:00:16.017Z,98443.13
2022-08-05T00:02:50.754Z,98437.31
2022-08-05T00:05:27.071Z,98438.63
2022-08-05T00:08:32.922Z,98436.00
2022-08-05T00:11:00.385Z,98433.91
2022-08-05T00:13:38.487Z,98431.72
2022-08-05T00:16:09.152Z,98423.38
2022-08-05T00:18:38.552Z,98419.91
2022-08-05T00:21:08.339Z,98426.97
2022-08-05T00:23:45.813Z,98423.22
2022-08-05T00:26:16.330Z,98420.28
2022-08-05T00:28:44.305Z,98422.22
2022-08-05T00:31:13.374Z,98417.88
2022-08-05T00:34:54.674Z,98419.19
2022-08-05T00:37:12.566Z,98410.16
2022-08-05T00:39:15.010Z,98410.16
2022-08-05T00:41:55.222Z,98407.25
2022-08-05T00:44:30.616Z,98404.38
2022-08-05T00:47:02.005Z,98398.28
2022-08-05T00:49:44.688Z,98397.25
2022-08-05T00:52:28.248Z,98397.25
2022-08-05T00:54:56.357Z,98391.91
2022-08-05T00:57:25.403Z,98385.34
2022-08-05T00:59:59.097Z,98388.00
2022-08-05T01:02:26.190Z,98380.59
2022-08-05T01:04:53.460Z,98377.75
2022-08-05T01:07:21.113Z,98365.78
2022-08-05T01:09:55.647Z,98366.53
2022-08-05T01:12:29.691Z,98372.38
2022-08-05T01:15:35.169Z,98365.78
2022-08-05T01:18:03.878Z,98365.50
2022-08-05T01:21:00.436Z,98370.19
2022-08-05T01:24:14.129Z,98360.78
2022-08-05T01:27:17.881Z,98361.56
2022-08-05T01:29:51.764Z,98355.78
2022-08-05T01:32:22.786Z,98358.44
2022-08-05T01:35:01.185Z,98358.66
2022-08-05T01:37:36.546Z,98362.56
2022-08-05T01:40:17.892Z,98351.84
2022-08-05T01:42:46.450Z,98353.28
2022-08-05T01:45:16.728Z,98352.03
2022-08-05T01:47:45.496Z,98356.19
2022-08-05T01:50:19.950Z,98357.16
2022-08-05T01:52:59.688Z,98348.59
2022-08-05T01:55:29.545Z,98341.97
2022-08-05T01:58:10.213Z,98347.34
2022-08-05T02:00:52.088Z,98350.84
2022-08-05T02:03:51.244Z,98342.56
2022-08-05T02:06:37.422Z,98347.19
2022-08-05T02:09:06.517Z,98344.00
2022-08-05T02:11:52.516Z,98337.41
2022-08-05T02:14:53.193Z,98346.97
2022-08-05T02:18:09.924Z,98339.78
2022-08-05T02:20:20.542Z,98339.50
2022-08-05T02:22:56.406Z,98340.25
2022-08-05T02:25:33.246Z,98342.41
2022-08-05T02:28:02.964Z,98332.41
2022-08-05T02:30:54.125Z,98343.94
2022-08-05T02:33:36.250Z,98342.94
2022-08-05T02:36:09.934Z,98340.69
2022-08-05T02:38:42.120Z,98333.56
2022-08-05T02:41:16.900Z,98331.81
2022-08-05T02:44:05.983Z,98340.88
2022-08-05T02:46:43.869Z,98338.94
2022-08-05T02:49:36.689Z,98334.13
2022-08-05T02:52:08.982Z,98325.88
2022-08-05T02:54:41.426Z,98332.19
2022-08-05T02:58:11.928Z,98320.41
2022-08-05T03:00:00.566Z,98326.47
2022-08-05T03:02:37.161Z,98328.00
2022-08-05T03:05:07.644Z,98321.16
2022-08-05T03:07:59.341Z,98329.94
2022-08-05T03:10:25.161Z,98324.56
2022-08-05T03:12:54.441Z,98320.41
2022-08-05T03:15:23.738Z,98320.94
2022-08-05T03:17:57.545Z,98315.28
2022-08-05T03:20:25.257Z,98311.59
2022-08-05T03:22:57.066Z,98318.63
2022-08-05T03:25:32.463Z,98309.03
2022-08-05T03:28:13.927Z,98296.59
2022-08-05T03:30:42.272Z,98300.28
2022-08-05T03:33:09.929Z,98298.19
2022-08-05T03:35:41.189Z,98293.91
2022-08-05T03:38:32.771Z,98296.41
2022-08-05T03:41:00.906Z,98295.25
2022-08-05T03:44:09.760Z,98300.28
2022-08-05T03:46:23.490Z,98296.13
2022-08-05T03:49:08.982Z,98301.47
2022-08-05T03:52:48.707Z,98298.00
2022-08-05T03:55:34.603Z,98293.13
2022-08-05T03:57:42.544Z,98309.16
2022-08-05T04:00:15.982Z,98304.22
2022-08-05T04:02:57.697Z,98303.22
2022-08-05T04:05:34.804Z,98306.13
2022-08-05T04:08:29.760Z,98301.75
2022-08-05T04:10:59.893Z,98304.22
2022-08-05T04:13:50.320Z,98306.19
2022-08-05T04:16:25.437Z,98298.88
2022-08-05T04:19:00.046Z,98300.03
2022-08-05T04:22:09.782Z,98298.03
2022-08-05T04:24:19.473Z,98297.22
2022-08-05T04:26:55.732Z,98299.63
2022-08-05T04:29:27.238Z,98301.78
2022-08-05T04:31:54.446Z,98298.91
2022-08-05T04:34:32.722Z,98298.91
2022-08-05T04:37:03.135Z,98298.16
2022-08-05T04:39:31.580Z,98296.41
2022-08-05T04:41:59.799Z,98297.88
2022-08-05T04:44:29.950Z,98297.16
2022-08-05T04:47:09.839Z,98292.78
2022-08-05T04:50:01.343Z,98292.06
2022-08-05T04:52:27.681Z,98289.38
2022-08-05T04:54:57.414Z,98292.78
2022-08-05T04:57:29.002Z,98294.75
2022-08-05T04:59:57.242Z,98304.25
2022-08-05T05:02:41.404Z,98299.63
2022-08-05T05:05:16.730Z,98303.25
2022-08-05T05:07:56.298Z,98309.06
2022-08-05T05:10:25.545Z,98305.44
2022-08-05T05:12:56.840Z,98312.94
2022-08-05T05:15:56.568Z,98307.16
2022-08-05T05:18:31.113Z,98304.25
2022-08-05T05:21:00.992Z,98301.78
2022-08-05T05:23:39.051Z,98304.25
2022-08-05T05:26:15.380Z,98306.66
2022-08-05T05:28:45.063Z,98307.38
2022-08-05T05:31:12.788Z,98303.25
2022-08-05T05:33:57.076Z,98299.09
2022-08-05T05:36:28.805Z,98308.16
2022-08-05T05:38:57.683Z,98305.47
2022-08-05T05:41:25.115Z,98305.00
2022-08-05T05:44:36.811Z,98313.09
2022-08-05T05:46:54.552Z,98305.97
2022-08-05T05:49:25.069Z,98307.94
2022-08-05T05:51:52.623Z,98300.09
2022-08-05T05:54:20.951Z,98294.25
2022-08-05T05:56:48.178Z,98294.97
2022-08-05T05:59:15.489Z,98290.84
2022-08-05T06:01:57.598Z,98288.16
2022-08-05T06:04:25.314Z,98295.47
2022-08-05T06:06:52.620Z,98300.34
2022-08-05T06:09:24.616Z,98301.78
2022-08-05T06:12:01.014Z,98301.03
2022-08-05T06:14:30.467Z,98303.25
2022-08-05T06:16:58.399Z,98308.63
2022-08-05T06:19:34.986Z,98297.16
2022-08-05T06:22:06.300Z,98306.94
2022-08-05T06:24:37.043Z,98311.63
2022-08-05T06:27:04.926Z,98310.94
2022-08-05T06:29:53.393Z,98316.50
2022-08-05T06:32:33.089Z,98319.91
2022-08-05T06:35:00.343Z,98320.13
2022-08-05T06:37:58.127Z,98322.59
2022-08-05T06:40:21.417Z,98322.22
2022-08-05T06:42:55.003Z,98334.47
2022-08-05T06:45:44.811Z,98329.09
2022-08-05T06:48:44.178Z,98326.84
2022-08-05T06:50:58.022Z,98330.22
2022-08-05T06:53:28.320Z,98334.53
2022-08-05T06:55:57.604Z,98331.84
2022-08-05T06:58:34.819Z,98332.28
2022-08-05T07:01:07.741Z,98322.97
2022-08-05T07:03:35.669Z,98326.34
2022-08-05T07:06:10.372Z,98323.19
2022-08-05T07:08:48.007Z,98317.16
2022-08-05T07:11:22.008Z,98317.66
2022-08-05T07:14:20.607Z,98325.44
2022-08-05T07:17:58.471Z,98325.94
2022-08-05T07:22:36.665Z,98329.03
2022-08-05T07:25:23.981Z,98337.09
2022-08-05T07:27:57.585Z,98350.50
2022-08-05T07:30:34.729Z,98345.22
2022-08-05T07:33:09.441Z,98352.53
2022-08-05T07:35:56.827Z,98356.59
2022-08-05T07:38:33.022Z,98363.81
2022-08-05T07:41:35.167Z,98366.38
2022-08-05T07:43:59.425Z,98373.84
2022-08-05T07:46:28.296Z,98375.25
2022-08-05T07:49:02.031Z,98371.91
2022-08-05T07:51:40.594Z,98379.56
2022-08-05T07:54:16.488Z,98379.38
2022-08-05T07:57:01.272Z,98370.94
2022-08-05T07:59:39.910Z,98378.19
2022-08-05T08:02:15.448Z,98377.66
2022-08-05T08:04:49.488Z,98389.25
2022-08-05T08:07:23.103Z,98399.16
2022-08-05T08:09:53.091Z,98404.22
2022-08-05T08:12:36.993Z,98401.25
2022-08-05T08:15:13.838Z,98403.16
2022-08-05T08:17:46.053Z,98412.66
2022-08-05T08:20:42.472Z,98412.97
2022-08-05T08:23:04.228Z,98422.88
2022-08-05T08:26:00.373Z,98418.19
2022-08-05T08:28:35.498Z,98423.13
2022-08-05T08:31:05.668Z,98421.59
2022-08-05T08:33:37.389Z,98416.09
2022-08-05T08:38:56.976Z,98424.06
2022-08-05T08:41:51.664Z,98418.69
2022-08-05T08:45:25.370Z,98428.69
2022-08-05T08:47:47.149Z,98425.75
2022-08-05T08:50:23.461Z,98425.41
2022-08-05T08:52:51.628Z,98415.81
2022-08-05T08:55:31.912Z,98427.00
2022-08-05T08:58:10.145Z,98430.66
2022-08-05T09:00:41.250Z,98438.63
2022-08-05T09:03:11.647Z,98441.47
2022-08-05T09:06:07.797Z,98445.03
2022-08-05T09:08:27.345Z,98445.03
2022-08-05T09:10:57.920Z,98443.56
2022-08-05T09:13:31.474Z,98450.81
2022-08-05T09:15:59.986Z,98443.44
2022-08-05T09:18:27.388Z,98447.22
2022-08-05T09:20:54.867Z,98450.53
2022-08-05T09:23:27.097Z,98445.81
2022-08-05T09:26:10.458Z,98447.72
2022-08-05T09:28:43.310Z,98449.81
2022-08-05T09:32:38.640Z,98457.34
2022-08-05T09:34:05.769Z,98450.59
2022-08-05T09:36:39.119Z,98459.09
2022-08-05T09:39:39.563Z,98451.22
2022-08-05T09:42:17.555Z,98458.06
2022-08-05T09:44:52.767Z,98459.72
2022-08-05T09:47:28.656Z,98457.50
2022-08-05T09:50:17.935Z,98460.81
2022-08-05T09:53:01.193Z,98460.81
2022-08-05T09:55:58.313Z,98468.81
2022-08-05T09:58:16.150Z,98462.09
2022-08-05T10:01:00.996Z,98470.78
2022-08-05T10:03:56.734Z,98479.06
2022-08-05T10:06:20.654Z,98483.31
2022-08-05T10:08:50.423Z,98480.38
2022-08-05T10:11:21.370Z,98483.38
2022-08-05T10:13:54.655Z,98486.00
2022-08-05T10:16:52.596Z,98482.88
2022-08-05T10:19:23.753Z,98493.91
2022-08-05T10:21:59.667Z,98490.88
2022-08-05T10:24:27.448Z,98488.69
2022-08-05T10:27:00.614Z,98491.56
2022-08-05T10:30:06.839Z,98491.72
2022-08-05T10:32:54.989Z,98480.75
2022-08-05T10:37:40.337Z,98475.09
2022-08-05T10:40:28.296Z,98490.31
2022-08-05T10:43:04.735Z,98488.03
2022-08-05T10:45:41.916Z,98486.41
2022-08-05T10:48:39.521Z,98487.53
2022-08-05T10:51:22.164Z,98484.94
2022-08-05T10:54:01.609Z,98484.50
2022-08-05T10:56:56.296Z,98491.78
2022-08-05T11:00:02.075Z,98491.66
2022-08-05T11:02:37.821Z,98493.94
2022-08-05T11:05:09.668Z,98494.50
2022-08-05T11:08:03.181Z,98496.56
2022-08-05T11:10:38.297Z,98503.41
2022-08-05T11:13:54.938Z,98505.91
2022-08-05T11:16:47.928Z,98500.09
2022-08-05T11:20:16.706Z,98505.47
2022-08-05T11:22:54.006Z,98499.91
2022-08-05T11:26:04.180Z,98507.56
2022-08-05T11:28:26.802Z,98511.28
2022-08-05T11:30:58.407Z,98511.91
2022-08-05T11:33:43.735Z,98511.16
2022-08-05T11:36:33.915Z,98505.28
2022-08-05T11:39:02.277Z,98507.44
2022-08-05T11:41:56.235Z,98517.47
2022-08-05T11:44:53.021Z,98503.81
2022-08-05T11:47:11.169Z,98507.44
2022-08-05T11:49:42.980Z,98506.81
2022-08-05T11:52:13.245Z,98500.78
2022-08-05T11:54:41.791Z,98509.31
2022-08-05T11:57:25.217Z,98504.09
2022-08-05T11:59:54.959Z,98508.13
2022-08-05T12:02:32.013Z,98506.47
2022-08-05T12:05:07.083Z,98515.16
2022-08-05T12:08:03.468Z,98517.50
2022-08-05T12:10:43.601Z,98514.50
2022-08-05T12:13:27.959Z,98508.00
2022-08-05T12:16:14.936Z,98518.44
2022-08-05T12:18:49.114Z,98521.94
2022-08-05T12:21:31.944Z,98523.38
2022-08-05T12:24:07.170Z,98518.31
2022-08-05T12:26:44.358Z,98516.63
2022-08-05T12:29:23.047Z,98511.84
2022-08-05T12:31:55.293Z,98517.00
2022-08-05T12:34:29.362Z,98512.00
2022-08-05T12:37:09.665Z,98506.94
2022-08-05T12:39:41.459Z,98496.88
2022-08-05T12:42:14.819Z,98495.66
2022-08-05T12:44:44.961Z,98486.84
2022-08-05T12:47:25.463Z,98488.28
2022-08-05T12:50:04.853Z,98480.72
2022-08-05T12:52:39.408Z,98487.75
2022-08-05T12:55:23.789Z,98475.78
2022-08-05T12:58:38.855Z,98483.97
2022-08-05T13:02:03.202Z,98480.28
2022-08-05T13:03:41.737Z,98487.03
2022-08-05T13:06:15.864Z,98472.88
2022-08-05T13:08:50.612Z,98472.47
2022-08-05T13:11:47.030Z,98472.25
2022-08-05T13:14:35.897Z,98475.16
2022-08-05T13:17:16.702Z,98476.41
2022-08-05T13:20:07.501Z,98469.94
2022-08-05T13:22:42.135Z,98479.03
2022-08-05T13:25:18.840Z,98477.41
2022-08-05T13:27:57.704Z,98476.72
2022-08-05T13:30:33.082Z,98487.88
2022-08-05T13:33:03.590Z,98475.88
2022-08-05T13:35:42.645Z,98486.00
2022-08-05T13:38:28.282Z,98475.59
2022-08-05T13:41:01.617Z,98467.72
2022-08-05T13:43:45.924Z,98474.13
2022-08-05T13:46:30.604Z,98470.28
2022-08-05T13:49:05.119Z,98470.16
2022-08-05T13:51:45.734Z,98459.38
2022-08-05T13:54:15.440Z,98457.16
2022-08-05T13:56:44.947Z,98451.75
2022-08-05T13:59:20.107Z,98453.91
2022-08-05T14:01:57.717Z,98444.94
2022-08-05T14:04:50.187Z,98437.97
2022-08-05T14:08:00.418Z,98430.31
2022-08-05T14:10:29.035Z,98428.19
2022-08-05T14:12:59.628Z,98429.44
2022-08-05T14:16:07.006Z,98425.69
2022-08-05T14:18:18.558Z,98429.66
2022-08-05T14:20:54.738Z,98426.94
2022-08-05T14:23:25.782Z,98419.78
2022-08-05T14:25:59.059Z,98426.84
2022-08-05T14:28:30.717Z,98420.94
2022-08-05T14:31:01.777Z,98417.91
2022-08-05T14:33:32.596Z,98422.59
2022-08-05T14:36:20.559Z,98422.91
2022-08-05T14:38:49.984Z,98423.59
2022-08-05T14:41:17.822Z,98432.59
2022-08-05T14:43:57.733Z,98430.63
2022-08-05T14:46:30.740Z,98433.16
2022-08-05T14:49:06.400Z,98434.78
2022-08-05T14:51:42.422Z,98430.13
2022-08-05T14:54:27.946Z,98436.66
2022-08-05T14:56:57.950Z,98436.38
2022-08-05T14:59:25.320Z,98437.91
2022-08-05T15:01:57.179Z,98435.75
2022-08-05T15:04:27.460Z,98435.81
2022-08-05T15:06:56.303Z,98432.19
2022-08-05T15:09:51.817Z,98432.00
2022-08-05T15:12:16.433Z,98434.72
2022-08-05T15:14:49.877Z,98437.59
2022-08-05T15:17:46.685Z,98428.91
2022-08-05T15:20:18.901Z,98429.28
2022-08-05T15:22:55.705Z,98424.03
2022-08-05T15:25:51.695Z,98416.47
2022-08-05T15:28:14.730Z,98409.44
2022-08-05T15:30:45.719Z,98420.25
2022-08-05T15:34:05.629Z,98419.44
2022-08-05T15:36:05.624Z,98420.81
2022-08-05T15:38:41.900Z,98417.84
2022-08-05T15:41:21.000Z,98407.66
2022-08-05T15:43:55.348Z,98400.59
2022-08-05T15:46:34.511Z,98395.22
2022-08-05T15:49:10.713Z,98399.75
2022-08-05T15:52:14.019Z,98411.81
2022-08-05T15:54:34.395Z,98395.66
2022-08-05T15:57:02.707Z,98394.06
2022-08-05T15:59:29.947Z,98398.03
2022-08-05T16:01:57.147Z,98411.16
2022-08-05T16:04:28.237Z,98403.59
2022-08-05T16:06:55.993Z,98398.59
2022-08-05T16:09:24.475Z,98402.22
2022-08-05T16:11:53.888Z,98397.88
2022-08-05T16:14:22.382Z,98395.75
2022-08-05T16:16:50.152Z,98405.81
2022-08-05T16:19:25.359Z,98411.63
2022-08-05T16:22:05.604Z,98406.75
2022-08-05T16:24:40.364Z,98402.06
2022-08-05T16:27:15.763Z,98402.78
2022-08-05T16:29:50.018Z,98401.47
2022-08-05T16:32:17.980Z,98405.72
2022-08-05T16:34:55.662Z,98405.69
2022-08-05T16:38:11.960Z,98404.97
2022-08-05T16:40:13.671Z,98415.69
2022-08-05T16:42:52.789Z,98410.56
2022-08-05T16:46:05.100Z,98399.81
2022-08-05T16:48:07.671Z,98404.59
2022-08-05T16:50:40.831Z,98418.25
2022-08-05T16:53:12.619Z,98404.44
2022-08-05T16:55:49.930Z,98407.72
2022-08-05T16:58:19.633Z,98403.19
2022-08-05T17:00:49.570Z,98408.94
2022-08-05T17:03:20.281Z,98402.38
2022-08-05T17:05:54.104Z,98405.66
2022-08-05T17:08:35.920Z,98402.97
2022-08-05T17:11:12.750Z,98398.91
2022-08-05T17:13:45.398Z,98390.91
2022-08-05T17:16:32.782Z,98390.28
2022-08-05T17:19:07.768Z,98395.59
2022-08-05T17:21:37.642Z,98395.03
2022-08-05T17:24:19.400Z,98385.78
2022-08-05T17:27:01.185Z,98384.13
2022-08-05T17:29:41.329Z,98387.72
2022-08-05T17:32:17.086Z,98380.66
2022-08-05T17:34:49.143Z,98370.38
2022-08-05T17:37:40.970Z,98378.72
2022-08-05T17:40:10.990Z,98382.41
2022-08-05T17:42:41.686Z,98384.50
2022-08-05T17:45:21.200Z,98379.66
2022-08-05T17:47:54.470Z,98387.50
2022-08-05T17:50:29.924Z,98389.84
2022-08-05T17:53:08.354Z,98390.09
2022-08-05T17:55:39.687Z,98388.66
2022-08-05T17:58:12.138Z,98367.44
2022-08-05T18:00:45.195Z,98363.19
2022-08-05T18:06:11.925Z,98367.22
2022-08-05T18:08:44.884Z,98355.22
2022-08-05T18:11:24.439Z,98355.25
2022-08-05T18:14:06.708Z,98357.94
2022-08-05T18:16:46.838Z,98353.22
2022-08-05T18:19:22.879Z,98351.56
2022-08-05T18:22:07.160Z,98340.19
2022-08-05T18:24:37.058Z,98353.00
2022-08-05T18:27:04.441Z,98355.06
2022-08-05T18:29:41.375Z,98351.03
2022-08-05T18:32:13.074Z,98359.22
2022-08-05T18:34:42.972Z,98356.03
2022-08-05T18:37:12.603Z,98354.47
2022-08-05T18:40:31.435Z,98365.44
2022-08-05T18:42:45.246Z,98365.72
2022-08-05T18:45:13.526Z,98363.84
2022-08-05T18:47:43.055Z,98367.28
2022-08-05T18:50:44.860Z,98379.75
2022-08-05T18:53:20.635Z,98375.94
2022-08-05T18:55:51.830Z,98383.19
2022-08-05T18:58:22.152Z,98371.97
2022-08-05T19:00:58.854Z,98375.78
2022-08-05T19:03:53.352Z,98382.66
2022-08-05T19:06:20.114Z,98384.09
2022-08-05T19:08:49.709Z,98382.66
2022-08-05T19:11:28.021Z,98373.09
2022-08-05T19:14:00.611Z,98367.81
2022-08-05T19:16:36.849Z,98371.19
2022-08-05T19:19:14.482Z,98374.44
2022-08-05T19:21:41.827Z,98372.78
2022-08-05T19:24:12.960Z,98369.50
2022-08-05T19:26:54.673Z,98373.63
2022-08-05T19:29:24.243Z,98373.94
2022-08-05T19:31:55.850Z,98377.28
2022-08-05T19:34:25.522Z,98373.84
2022-08-05T19:36:53.107Z,98387.19
2022-08-05T19:39:20.480Z,98388.63
2022-08-05T19:42:06.215Z,98391.81
2022-08-05T19:44:44.552Z,98396.97
2022-08-05T19:47:15.126Z,98402.09
2022-08-05T19:49:44.134Z,98402.50
2022-08-05T19:52:31.189Z,98400.13
2022-08-05T19:55:07.239Z,98395.03
2022-08-05T19:58:19.781Z,98401.72
2022-08-05T20:00:36.868Z,98396.22
2022-08-05T20:03:08.937Z,98395.59
2022-08-05T20:05:42.944Z,98396.16
2022-08-05T20:08:10.778Z,98400.69
2022-08-05T20:10:38.023Z,98391.22
2022-08-05T20:13:11.325Z,98394.50
2022-08-05T20:15:51.961Z,98404.53
2022-08-05T20:18:33.332Z,98408.03
2022-08-05T20:21:04.697Z,98407.59
2022-08-05T20:23:40.205Z,98411.22
2022-08-05T20:26:17.845Z,98420.75
2022-08-05T20:28:51.157Z,98423.69
2022-08-05T20:31:28.352Z,98434.13
2022-08-05T20:34:04.993Z,98431.94
2022-08-05T20:36:32.360Z,98428.59
2022-08-05T20:38:59.952Z,98436.97
2022-08-05T20:41:43.179Z,98443.25
2022-08-05T20:44:17.090Z,98444.28
2022-08-05T20:46:47.626Z,98444.28
2022-08-05T20:49:23.930Z,98443.63
2022-08-05T20:51:53.624Z,98454.06
2022-08-05T20:54:21.243Z,98453.09
2022-08-05T20:56:48.928Z,98458.47
2022-08-05T20:59:19.185Z,98463.63
2022-08-05T21:01:56.089Z,98470.25
2022-08-05T21:04:26.985Z,98477.34
2022-08-05T21:06:55.125Z,98475.66
2022-08-05T21:09:23.226Z,98480.81
2022-08-05T21:12:09.396Z,98479.00
2022-08-05T21:14:38.680Z,98488.97
2022-08-05T21:17:06.457Z,98490.56
2022-08-05T21:19:46.552Z,98504.44
2022-08-05T21:22:17.707Z,98503.00
2022-08-05T21:24:48.924Z,98500.13
2022-08-05T21:27:20.582Z,98508.38
2022-08-05T21:29:52.231Z,98511.84
2022-08-05T21:32:21.275Z,98518.22
2022-08-05T21:35:08.989Z,98517.22
2022-08-05T21:37:41.163Z,98519.09
2022-08-05T21:40:13.951Z,98523.75
2022-08-05T21:42:44.432Z,98525.47
2022-08-05T21:45:12.306Z,98524.97
2022-08-05T21:47:55.940Z,98537.69
2022-08-05T21:50:25.058Z,98531.41
2022-08-05T21:52:52.355Z,98538.50
2022-08-05T21:56:01.577Z,98539.69
2022-08-05T21:58:10.520Z,98538.50
2022-08-05T22:00:40.172Z,98536.31
2022-08-05T22:03:09.830Z,98527.94
2022-08-05T22:05:49.276Z,98538.13
2022-08-05T22:08:22.321Z,98534.19
2022-08-05T22:10:53.147Z,98538.69
2022-08-05T22:14:19.953Z,98532.88
2022-08-05T22:16:32.254Z,98542.91
2022-08-05T22:18:58.623Z,98538.84
2022-08-05T22:21:26.182Z,98541.06
2022-08-05T22:24:13.310Z,98547.84
2022-08-05T22:27:18.044Z,98543.47
2022-08-05T22:29:54.401Z,98546.16
2022-08-05T22:32:24.102Z,98553.41
2022-08-05T22:34:51.493Z,98558.78
2022-08-05T22:37:18.720Z,98551.72
2022-08-05T22:39:50.526Z,98559.06
2022-08-05T22:42:21.563Z,98559.50
2022-08-05T22:44:56.551Z,98570.97
2022-08-05T22:47:29.796Z,98562.69
2022-08-05T22:50:21.305Z,98563.88
2022-08-05T22:52:47.235Z,98567.22
2022-08-05T22:55:18.679Z,98560.16
2022-08-05T22:57:49.048Z,98566.97
2022-08-05T23:00:21.458Z,98563.78
2022-08-05T23:02:52.826Z,98567.66
2022-08-05T23:05:22.920Z,98572.00
2022-08-05T23:07:53.013Z,98582.72
2022-08-05T23:10:23.970Z,98570.78
2022-08-05T23:12:54.926Z,98574.41
2022-08-05T23:15:27.148Z,98566.56
2022-08-05T23:18:00.761Z,98564.88
2022-08-05T23:20:30.923Z,98568.53
2022-08-05T23:22:58.593Z,98566.38
2022-08-05T23:25:52.618Z,98564.41
2022-08-05T23:28:15.999Z,98569.00
2022-08-05T23:30:53.233Z,98561.50
2022-08-05T23:33:26.357Z,98570.53
2022-08-05T23:36:09.963Z,98572.22
2022-08-05T23:38:38.168Z,98565.72
2022-08-05T23:41:05.413Z,98564.69
2022-08-05T23:44:04.439Z,98552.03
2022-08-05T23:46:22.070Z,98563.50
2022-08-05T23:49:00.440Z,98567.66
2022-08-05T23:51:54.002Z,98572.78
2022-08-05T23:54:34.173Z,98564.53
2022-08-05T23:57:06.114Z,98566.28
